createdAt,value
2018-09-01T00:02:03.328Z,80.60
2018-09-01T00:04:44.006Z,80.60
2018-09-01T00:07:24.636Z,79.80
2018-09-01T00:10:05.406Z,77.20
2018-09-01T00:12:46.069Z,77.90
2018-09-01T00:15:26.845Z,78.30
2018-09-01T00:17:55.029Z,78.50
2018-09-01T00:20:35.302Z,78.40
2018-09-01T00:23:16.053Z,78.30
2018-09-01T00:25:57.016Z,79.00
2018-09-01T00:28:25.260Z,78.70
2018-09-01T00:30:53.521Z,78.60
2018-09-01T00:33:23.975Z,78.70
2018-09-01T00:35:57.635Z,79.00
2018-09-01T00:38:31.977Z,79.20
2018-09-01T00:41:00.177Z,79.10
2018-09-01T00:43:29.868Z,79.30
2018-09-01T00:45:58.097Z,79.80
2018-09-01T00:48:26.406Z,79.80
2018-09-01T00:51:06.607Z,79.80
2018-09-01T00:53:47.663Z,80.00
2018-09-01T00:56:15.916Z,80.30
2018-09-01T00:58:44.108Z,80.30
2018-09-01T01:01:12.439Z,79.50
2018-09-01T01:03:40.999Z,79.90
2018-09-01T01:06:21.515Z,80.00
2018-09-01T01:08:49.762Z,80.00
2018-09-01T01:11:30.817Z,79.70
2018-09-01T01:14:00.320Z,79.50
2018-09-01T01:16:29.625Z,80.50
2018-09-01T01:19:09.885Z,81.10
2018-09-01T01:21:50.901Z,80.80
2018-09-01T01:24:21.172Z,80.90
2018-09-01T01:27:01.536Z,81.20
2018-09-01T01:29:29.757Z,82.30
2018-09-01T01:31:58.267Z,82.10
2018-09-01T01:34:38.701Z,82.50
2018-09-01T01:37:06.984Z,83.20
2018-09-01T01:39:35.191Z,83.80
2018-09-01T01:42:16.039Z,84.20
2018-09-01T01:44:57.355Z,84.70
2018-09-01T01:47:37.658Z,85.40
2018-09-01T01:50:18.435Z,85.80
2018-09-01T01:52:46.647Z,86.30
2018-09-01T01:55:27.139Z,86.70
2018-09-01T01:58:08.062Z,87.10
2018-09-01T02:00:36.350Z,87.50
2018-09-01T02:03:04.564Z,87.70
2018-09-01T02:05:45.596Z,88.50
2018-09-01T02:08:26.344Z,89.70
2018-09-01T02:10:54.574Z,89.40
2018-09-01T02:13:35.053Z,90.00
2018-09-01T02:16:03.263Z,90.10
2018-09-01T02:18:31.434Z,90.30
2018-09-01T02:21:12.365Z,90.70
2018-09-01T02:23:41.606Z,91.00
2018-09-01T02:26:22.601Z,91.50
2018-09-01T02:29:03.199Z,92.10
2018-09-01T02:31:31.427Z,92.70
2018-09-01T02:33:59.630Z,93.40
2018-09-01T02:36:27.843Z,94.10
2018-09-01T02:39:03.264Z,95.00
2018-09-01T02:41:31.463Z,95.40
2018-09-01T02:44:12.500Z,96.10
2018-09-01T02:46:53.248Z,96.90
2018-09-01T02:49:33.853Z,97.70
2018-09-01T02:52:02.081Z,98.90
2018-09-01T02:54:42.593Z,99.70
2018-09-01T02:57:23.034Z,99.90
2018-09-01T03:00:08.005Z,99.90
2018-09-01T03:02:43.487Z,99.90
2018-09-01T03:05:12.410Z,99.90
2018-09-01T03:07:40.645Z,99.90
2018-09-01T03:10:21.281Z,99.90
2018-09-01T03:12:49.605Z,99.90
2018-09-01T03:15:18.473Z,99.90
2018-09-01T03:17:46.642Z,99.90
2018-09-01T03:20:14.868Z,99.90
2018-09-01T03:22:44.866Z,99.90
2018-09-01T03:25:13.081Z,99.90
2018-09-01T03:27:43.351Z,99.90
2018-09-01T03:30:24.067Z,99.90
2018-09-01T03:33:04.999Z,99.90
2018-09-01T03:35:33.218Z,99.90
2018-09-01T03:38:13.692Z,99.90
2018-09-01T03:40:54.352Z,99.90
2018-09-01T03:43:35.286Z,99.90
2018-09-01T03:46:03.481Z,99.90
2018-09-01T03:48:31.661Z,99.90
2018-09-01T03:51:12.701Z,99.90
2018-09-01T03:53:40.895Z,99.90
2018-09-01T03:56:09.272Z,99.90
2018-09-01T03:58:49.937Z,99.90
2018-09-01T04:01:18.892Z,99.90
2018-09-01T04:03:59.431Z,99.90
2018-09-01T04:06:40.334Z,99.90
2018-09-01T04:09:08.997Z,99.90
2018-09-01T04:11:37.279Z,99.90
2018-09-01T04:14:05.537Z,99.90
2018-09-01T04:16:46.226Z,99.90
2018-09-01T04:19:17.444Z,99.90
2018-09-01T04:21:46.858Z,99.90
2018-09-01T04:24:15.120Z,99.90
2018-09-01T04:26:55.568Z,99.90
2018-09-01T04:29:36.287Z,99.90
2018-09-01T04:32:17.286Z,99.90
2018-09-01T04:34:58.132Z,99.90
2018-09-01T04:37:38.801Z,99.90
2018-09-01T04:40:07.547Z,99.90
2018-09-01T04:42:35.736Z,99.90
2018-09-01T04:45:16.917Z,99.90
2018-09-01T04:47:45.062Z,99.90
2018-09-01T04:50:25.320Z,99.90
2018-09-01T04:53:05.945Z,99.90
2018-09-01T04:55:34.142Z,99.90
2018-09-01T04:58:02.393Z,99.90
2018-09-01T05:00:42.727Z,99.90
2018-09-01T05:03:10.992Z,99.90
2018-09-01T05:05:51.405Z,99.90
2018-09-01T05:08:19.636Z,99.90
2018-09-01T05:10:48.048Z,99.90
2018-09-01T05:13:16.242Z,99.90
2018-09-01T05:15:44.489Z,99.90
2018-09-01T05:18:12.673Z,99.90
2018-09-01T05:20:40.892Z,99.90
2018-09-01T05:23:09.298Z,99.90
2018-09-01T05:25:49.807Z,99.90
2018-09-01T05:28:18.256Z,99.90
2018-09-01T05:30:59.337Z,99.90
2018-09-01T05:33:39.913Z,99.90
2018-09-01T05:36:20.860Z,99.90
2018-09-01T05:38:50.588Z,99.90
2018-09-01T05:41:31.498Z,99.90
2018-09-01T05:44:07.298Z,99.90
2018-09-01T05:46:35.605Z,99.90
2018-09-01T05:49:15.782Z,99.90
2018-09-01T05:51:56.392Z,99.90
2018-09-01T05:54:37.264Z,99.90
2018-09-01T05:57:11.543Z,99.90
2018-09-01T05:59:52.558Z,99.90
2018-09-01T06:02:33.457Z,99.90
2018-09-01T06:05:01.645Z,99.90
2018-09-01T06:07:29.891Z,99.90
2018-09-01T06:09:58.228Z,99.90
2018-09-01T06:12:26.425Z,99.90
2018-09-01T06:15:07.641Z,99.90
2018-09-01T06:17:48.343Z,99.90
2018-09-01T06:20:16.478Z,99.90
2018-09-01T06:22:56.633Z,99.90
2018-09-01T06:25:24.882Z,99.90
2018-09-01T06:27:55.869Z,99.90
2018-09-01T06:30:39.071Z,99.90
2018-09-01T06:33:07.328Z,99.90
2018-09-01T06:35:48.195Z,99.90
2018-09-01T06:38:28.998Z,99.90
2018-09-01T06:40:57.252Z,99.90
2018-09-01T06:43:37.634Z,99.90
2018-09-01T06:46:18.390Z,99.90
2018-09-01T06:48:46.614Z,99.90
2018-09-01T06:51:20.441Z,99.90
2018-09-01T06:53:54.156Z,99.90
2018-09-01T06:56:23.406Z,99.90
2018-09-01T06:59:03.938Z,99.90
2018-09-01T07:01:44.827Z,99.90
2018-09-01T07:04:25.708Z,99.90
2018-09-01T07:07:06.472Z,99.90
2018-09-01T07:09:47.336Z,99.90
2018-09-01T07:12:15.611Z,99.90
2018-09-01T07:14:43.867Z,99.90
2018-09-01T07:17:13.475Z,99.90
2018-09-01T07:19:53.723Z,99.90
2018-09-01T07:22:34.453Z,99.90
2018-09-01T07:25:02.707Z,99.90
2018-09-01T07:27:30.945Z,99.90
2018-09-01T07:30:12.376Z,99.90
2018-09-01T07:32:52.931Z,99.90
2018-09-01T07:35:23.556Z,99.90
2018-09-01T07:37:56.551Z,99.90
2018-09-01T07:40:37.810Z,99.90
2018-09-01T07:43:18.240Z,99.90
2018-09-01T07:45:46.531Z,99.90
2018-09-01T07:48:14.817Z,99.90
2018-09-01T07:50:55.514Z,99.90
2018-09-01T07:53:23.747Z,99.90
2018-09-01T07:55:51.975Z,99.90
2018-09-01T07:58:32.531Z,99.90
2018-09-01T08:01:13.084Z,99.90
2018-09-01T08:03:53.874Z,99.90
2018-09-01T08:06:22.077Z,99.90
2018-09-01T08:09:02.418Z,99.90
2018-09-01T08:11:34.582Z,99.90
2018-09-01T08:14:15.688Z,99.90
2018-09-01T08:16:43.935Z,99.90
2018-09-01T08:19:15.887Z,99.90
2018-09-01T08:21:56.259Z,99.90
2018-09-01T08:24:37.023Z,99.90
2018-09-01T08:27:18.036Z,99.90
2018-09-01T08:29:46.540Z,99.90
2018-09-01T08:32:27.369Z,99.90
2018-09-01T08:35:07.917Z,99.90
2018-09-01T08:37:48.704Z,99.90
2018-09-01T08:40:18.012Z,99.90
2018-09-01T08:42:46.350Z,99.90
2018-09-01T08:45:14.592Z,99.90
2018-09-01T08:47:55.659Z,99.90
2018-09-01T08:50:23.885Z,99.90
2018-09-01T08:53:04.327Z,99.90
2018-09-01T08:55:33.548Z,99.90
2018-09-01T08:58:14.608Z,99.90
2018-09-01T09:00:54.963Z,99.90
2018-09-01T09:03:35.693Z,99.90
2018-09-01T09:06:04.092Z,99.90
2018-09-01T09:08:44.328Z,99.90
2018-09-01T09:11:14.507Z,99.90
2018-09-01T09:13:42.708Z,99.90
2018-09-01T09:16:23.221Z,99.90
2018-09-01T09:19:03.958Z,99.90
2018-09-01T09:21:32.229Z,99.90
2018-09-01T09:25:29.720Z,99.90
2018-09-01T09:27:57.903Z,99.90
2018-09-01T09:30:38.799Z,99.90
2018-09-01T09:33:19.708Z,99.90
2018-09-01T09:36:00.508Z,99.90
2018-09-01T09:38:28.760Z,99.90
2018-09-01T09:40:56.942Z,99.90
2018-09-01T09:43:37.997Z,99.90
2018-09-01T09:46:18.887Z,99.90
2018-09-01T09:48:59.485Z,99.90
2018-09-01T09:51:40.205Z,99.10
2018-09-01T09:54:08.427Z,96.90
2018-09-01T09:56:45.948Z,96.00
2018-09-01T09:59:26.349Z,96.20
2018-09-01T10:02:06.916Z,96.30
2018-09-01T10:04:36.117Z,95.90
2018-09-01T10:07:04.355Z,95.90
2018-09-01T10:09:44.872Z,94.70
2018-09-01T10:12:13.109Z,93.70
2018-09-01T10:14:54.140Z,92.70
2018-09-01T10:17:34.821Z,91.50
2018-09-01T10:20:08.642Z,91.70
2018-09-01T10:22:36.824Z,92.80
2018-09-01T10:25:05.111Z,92.10
2018-09-01T10:27:33.544Z,90.70
2018-09-01T10:30:01.752Z,90.80
2018-09-01T10:32:30.172Z,90.00
2018-09-01T10:34:58.416Z,83.90
2018-09-01T10:37:39.195Z,70.90
2018-09-01T10:40:07.369Z,60.10
2018-09-01T10:42:35.872Z,54.80
2018-09-01T10:45:04.155Z,51.20
2018-09-01T10:47:33.922Z,48.70
2018-09-01T10:50:14.969Z,48.60
2018-09-01T10:52:55.526Z,46.20
2018-09-01T10:55:36.271Z,43.50
2018-09-01T10:58:17.048Z,39.80
2018-09-01T11:00:57.859Z,37.80
2018-09-01T11:03:38.514Z,38.20
2018-09-01T11:06:19.417Z,39.40
2018-09-01T11:08:48.601Z,41.60
2018-09-01T11:11:29.699Z,44.10
2018-09-01T11:14:10.266Z,47.30
2018-09-01T11:16:50.866Z,50.30
2018-09-01T11:19:19.801Z,52.00
2018-09-01T11:22:00.540Z,52.30
2018-09-01T11:24:29.410Z,52.90
2018-09-01T11:26:57.629Z,54.30
2018-09-01T11:29:38.661Z,54.20
2018-09-01T11:32:06.969Z,52.70
2018-09-01T11:34:35.286Z,53.10
2018-09-01T11:37:15.755Z,52.90
2018-09-01T11:39:44.951Z,49.00
2018-09-01T11:42:26.060Z,44.10
2018-09-01T11:45:06.605Z,43.60
2018-09-01T11:47:34.820Z,42.00
2018-09-01T11:50:15.265Z,39.80
2018-09-01T11:52:56.064Z,37.50
2018-09-01T11:55:36.784Z,35.00
2018-09-01T11:58:17.244Z,32.70
2018-09-01T12:00:57.820Z,32.20
2018-09-01T12:03:26.065Z,30.00
2018-09-01T12:05:55.846Z,30.00
2018-09-01T12:08:24.197Z,28.40
2018-09-01T12:10:52.490Z,29.90
2018-09-01T12:13:22.076Z,29.60
2018-09-01T12:15:50.275Z,29.30
2018-09-01T12:18:31.138Z,31.80
2018-09-01T12:21:11.870Z,32.60
2018-09-01T12:23:52.470Z,35.40
2018-09-01T12:26:20.837Z,36.70
2018-09-01T12:29:04.417Z,38.80
2018-09-01T12:31:44.522Z,39.90
2018-09-01T12:34:25.197Z,41.90
2018-09-01T12:37:05.823Z,43.40
2018-09-01T12:39:46.506Z,44.30
2018-09-01T12:42:27.258Z,44.90
2018-09-01T12:45:08.004Z,46.60
2018-09-01T12:47:48.707Z,47.80
2018-09-01T12:50:29.205Z,48.30
2018-09-01T12:53:09.865Z,49.00
2018-09-01T12:55:50.414Z,49.60
2018-09-01T12:58:18.880Z,50.10
2018-09-01T13:00:59.824Z,50.10
2018-09-01T13:03:28.283Z,50.20
2018-09-01T13:06:09.980Z,51.10
2018-09-01T13:08:50.940Z,51.00
2018-09-01T13:11:31.704Z,50.60
2018-09-01T13:13:59.924Z,51.00
2018-09-01T13:16:41.011Z,51.70
2018-09-01T13:19:09.343Z,51.20
2018-09-01T13:21:49.734Z,51.20
2018-09-01T13:24:30.293Z,51.60
2018-09-01T13:27:10.926Z,51.50
2018-09-01T13:29:51.471Z,50.90
2018-09-01T13:32:32.136Z,49.70
2018-09-01T13:35:13.502Z,50.90
2018-09-01T13:37:49.306Z,50.90
2018-09-01T13:40:29.948Z,50.40
2018-09-01T13:43:11.032Z,49.70
2018-09-01T13:45:51.421Z,50.50
2018-09-01T13:48:19.749Z,50.90
2018-09-01T13:50:47.946Z,51.30
2018-09-01T13:53:16.408Z,52.00
2018-09-01T13:55:57.016Z,52.90
2018-09-01T13:58:37.625Z,53.30
2018-09-01T14:01:06.161Z,53.80
2018-09-01T14:03:37.957Z,54.00
2018-09-01T14:06:06.359Z,53.20
2018-09-01T14:08:47.287Z,53.10
2018-09-01T14:11:15.667Z,53.40
2018-09-01T14:13:55.912Z,52.40
2018-09-01T14:16:25.315Z,52.50
2018-09-01T14:18:53.751Z,52.40
2018-09-01T14:21:34.816Z,51.80
2018-09-01T14:24:15.456Z,51.90
2018-09-01T14:26:56.116Z,51.60
2018-09-01T14:29:36.572Z,51.10
2018-09-01T14:32:17.253Z,51.30
2018-09-01T14:34:45.547Z,51.20
2018-09-01T14:37:26.133Z,51.30
2018-09-01T14:40:06.758Z,50.80
2018-09-01T14:42:47.230Z,49.80
2018-09-01T14:45:15.730Z,50.40
2018-09-01T14:47:56.506Z,49.60
2018-09-01T14:50:37.378Z,50.20
2018-09-01T14:53:18.070Z,50.50
2018-09-01T14:55:46.577Z,50.40
2018-09-01T14:58:14.818Z,51.50
2018-09-01T15:00:43.119Z,51.60
2018-09-01T15:03:23.901Z,51.10
2018-09-01T15:06:04.793Z,51.50
2018-09-01T15:08:33.072Z,51.40
2018-09-01T15:11:01.511Z,52.20
2018-09-01T15:13:29.949Z,52.10
2018-09-01T15:15:58.886Z,51.90
2018-09-01T15:18:39.572Z,51.50
2018-09-01T15:21:20.077Z,51.70
2018-09-01T15:23:49.387Z,51.60
2018-09-01T15:26:18.991Z,52.00
2018-09-01T15:29:00.238Z,51.50
2018-09-01T15:31:28.552Z,50.70
2018-09-01T15:33:56.784Z,50.50
2018-09-01T15:36:37.252Z,50.80
2018-09-01T15:39:06.480Z,50.70
2018-09-01T15:41:46.732Z,51.20
2018-09-01T15:44:15.026Z,51.90
2018-09-01T15:46:43.232Z,51.60
2018-09-01T15:49:23.734Z,51.40
2018-09-01T15:52:04.281Z,51.30
2018-09-01T15:54:32.573Z,51.70
2018-09-01T15:57:00.797Z,52.00
2018-09-01T15:59:29.011Z,51.80
2018-09-01T16:02:09.232Z,51.20
2018-09-01T16:04:37.496Z,51.60
2018-09-01T16:07:18.509Z,52.30
2018-09-01T16:09:59.220Z,52.40
2018-09-01T16:12:27.504Z,52.30
2018-09-01T16:15:08.295Z,52.40
2018-09-01T16:17:36.722Z,52.50
2018-09-01T16:20:17.820Z,52.80
2018-09-01T16:22:46.165Z,52.80
2018-09-01T16:25:14.567Z,53.00
2018-09-01T16:27:55.100Z,53.10
2018-09-01T16:30:23.300Z,53.00
2018-09-01T16:32:51.558Z,53.20
2018-09-01T16:35:20.542Z,53.20
2018-09-01T16:38:01.072Z,52.80
2018-09-01T16:40:41.642Z,53.20
2018-09-01T16:43:22.464Z,53.40
2018-09-01T16:46:03.341Z,54.30
2018-09-01T16:48:43.486Z,53.90
2018-09-01T16:51:11.701Z,54.10
2018-09-01T16:53:39.988Z,54.40
2018-09-01T16:56:20.521Z,54.40
2018-09-01T16:59:01.095Z,54.70
2018-09-01T17:01:41.693Z,54.70
2018-09-01T17:04:09.911Z,55.00
2018-09-01T17:06:38.187Z,55.30
2018-09-01T17:09:18.752Z,54.90
2018-09-01T17:12:00.058Z,55.30
2018-09-01T17:14:28.402Z,55.50
2018-09-01T17:17:09.282Z,55.70
2018-09-01T17:19:49.983Z,55.70
2018-09-01T17:22:30.543Z,55.50
2018-09-01T17:25:11.226Z,55.90
2018-09-01T17:27:39.524Z,56.60
2018-09-01T17:30:20.581Z,56.30
2018-09-01T17:33:02.038Z,56.20
2018-09-01T17:35:42.751Z,55.90
2018-09-01T17:38:23.488Z,56.50
2018-09-01T17:40:55.746Z,56.70
2018-09-01T17:43:24.115Z,57.00
2018-09-01T17:46:04.450Z,57.00
2018-09-01T17:48:32.689Z,57.20
2018-09-01T17:51:13.765Z,57.30
2018-09-01T17:53:54.426Z,57.30
2018-09-01T17:56:22.729Z,57.10
2018-09-01T17:58:50.954Z,57.20
2018-09-01T18:01:20.557Z,57.20
2018-09-01T18:04:01.171Z,57.30
2018-09-01T18:06:31.405Z,57.30
2018-09-01T18:08:59.634Z,57.30
2018-09-01T18:11:27.854Z,57.40
2018-09-01T18:14:08.826Z,57.50
2018-09-01T18:16:40.094Z,57.90
2018-09-01T18:19:08.332Z,58.30
2018-09-01T18:21:40.322Z,58.30
2018-09-01T18:24:21.275Z,58.60
2018-09-01T18:27:01.616Z,58.30
2018-09-01T18:29:42.172Z,58.20
2018-09-01T18:32:22.748Z,58.40
2018-09-01T18:34:50.977Z,58.20
2018-09-01T18:37:32.305Z,58.60
2018-09-01T18:40:12.699Z,59.00
2018-09-01T18:42:53.447Z,58.70
2018-09-01T18:45:21.702Z,58.90
2018-09-01T18:48:01.937Z,59.00
2018-09-01T18:50:42.464Z,59.10
2018-09-01T18:53:24.858Z,58.70
2018-09-01T18:55:53.099Z,58.80
2018-09-01T18:58:33.539Z,58.60
2018-09-01T19:01:03.386Z,59.20
2018-09-01T19:03:31.630Z,59.00
2018-09-01T19:06:11.893Z,58.90
2018-09-01T19:08:52.591Z,59.20
2018-09-01T19:11:20.895Z,59.30
2018-09-01T19:14:02.166Z,59.20
2018-09-01T19:16:42.869Z,59.20
2018-09-01T19:19:23.528Z,59.30
2018-09-01T19:21:51.892Z,59.40
2018-09-01T19:24:25.619Z,59.60
2018-09-01T19:27:05.989Z,58.70
2018-09-01T19:29:34.244Z,58.50
2018-09-01T19:32:02.577Z,58.80
2018-09-01T19:34:43.109Z,59.10
2018-09-01T19:37:11.408Z,59.40
2018-09-01T19:39:51.943Z,59.60
2018-09-01T19:42:32.326Z,59.30
2018-09-01T19:45:00.807Z,59.30
2018-09-01T19:47:41.858Z,59.20
2018-09-01T19:50:11.621Z,59.40
2018-09-01T19:52:52.372Z,59.70
2018-09-01T19:55:33.112Z,59.80
2018-09-01T19:58:13.742Z,60.30
2018-09-01T20:00:41.957Z,60.70
2018-09-01T20:03:23.135Z,60.60
2018-09-01T20:05:51.427Z,60.70
2018-09-01T20:08:31.674Z,60.30
2018-09-01T20:11:12.461Z,60.20
2018-09-01T20:13:53.198Z,60.60
2018-09-01T20:16:33.885Z,60.20
2018-09-01T20:19:14.805Z,60.50
2018-09-01T20:21:55.338Z,61.40
2018-09-01T20:24:35.983Z,61.60
2018-09-01T20:27:04.324Z,61.90
2018-09-01T20:29:33.422Z,62.50
2018-09-01T20:32:13.976Z,63.00
2018-09-01T20:34:47.263Z,63.70
2018-09-01T20:37:22.643Z,63.40
2018-09-01T20:39:50.935Z,63.40
2018-09-01T20:42:31.822Z,63.80
2018-09-01T20:45:00.095Z,64.10
2018-09-01T20:47:28.309Z,64.30
2018-09-01T20:50:09.029Z,64.50
2018-09-01T20:52:40.705Z,64.60
2018-09-01T20:55:09.176Z,65.10
2018-09-01T20:57:40.565Z,65.50
2018-09-01T21:00:08.839Z,65.80
2018-09-01T21:02:49.024Z,65.60
2018-09-01T21:05:29.891Z,65.50
2018-09-01T21:08:10.535Z,65.60
2018-09-01T21:10:51.196Z,65.60
2018-09-01T21:13:31.949Z,65.70
2018-09-01T21:16:12.542Z,65.80
2018-09-01T21:18:40.785Z,65.80
2018-09-01T21:21:20.997Z,66.10
2018-09-01T21:23:49.222Z,66.20
2018-09-01T21:26:29.488Z,66.30
2018-09-01T21:29:09.966Z,66.20
2018-09-01T21:31:38.196Z,66.00
2018-09-01T21:34:06.513Z,66.00
2018-09-01T21:36:34.732Z,66.00
2018-09-01T21:39:15.805Z,66.30
2018-09-01T21:41:56.592Z,65.90
2018-09-01T21:44:37.279Z,65.80
2018-09-01T21:47:17.786Z,66.00
2018-09-01T21:49:58.495Z,66.60
2018-09-01T21:52:26.775Z,66.30
2018-09-01T21:54:54.945Z,66.90
2018-09-01T21:57:35.624Z,66.50
2018-09-01T22:00:16.309Z,66.90
2018-09-01T22:02:44.548Z,67.30
2018-09-01T22:05:25.631Z,67.20
2018-09-01T22:08:06.209Z,67.70
2018-09-01T22:10:34.444Z,67.90
2018-09-01T22:13:15.402Z,68.00
2018-09-01T22:15:43.617Z,68.40
2018-09-01T22:18:24.327Z,68.90
2018-09-01T22:21:05.711Z,68.80
2018-09-01T22:23:35.385Z,68.80
2018-09-01T22:26:16.047Z,69.00
2018-09-01T22:28:56.640Z,69.40
2018-09-01T22:31:37.244Z,69.60
2018-09-01T22:34:17.833Z,69.50
2018-09-01T22:36:46.244Z,69.70
2018-09-01T22:39:14.488Z,70.10
2018-09-01T22:41:42.731Z,70.40
2018-09-01T22:44:10.954Z,71.40
2018-09-01T22:46:51.397Z,72.00
2018-09-01T22:49:32.271Z,72.40
2018-09-01T22:52:12.770Z,72.60
2018-09-01T22:54:53.441Z,72.80
2018-09-01T22:57:34.172Z,73.10
2018-09-01T23:00:14.551Z,73.80
2018-09-01T23:02:55.148Z,75.00
2018-09-01T23:05:23.387Z,76.20
2018-09-01T23:07:51.593Z,76.90
2018-09-01T23:10:32.163Z,77.40
2018-09-01T23:13:00.462Z,77.80
2018-09-01T23:15:28.745Z,78.30
2018-09-01T23:17:57.023Z,79.00
2018-09-01T23:20:25.326Z,80.60
2018-09-01T23:23:06.220Z,82.20
2018-09-01T23:25:46.904Z,82.90
2018-09-01T23:28:18.198Z,84.70
2018-09-01T23:30:59.336Z,87.80
2018-09-01T23:33:40.072Z,91.10
2018-09-01T23:36:20.633Z,93.50
2018-09-01T23:39:01.583Z,95.30
2018-09-01T23:41:42.373Z,96.60
2018-09-01T23:44:23.084Z,97.80
2018-09-01T23:46:51.304Z,99.00
2018-09-01T23:49:19.516Z,99.90
2018-09-01T23:52:00.460Z,99.90
2018-09-01T23:54:28.656Z,99.90
2018-09-01T23:57:09.194Z,99.90
2018-09-01T23:59:49.821Z,99.90
